sensor_id;sensor_type;location;lat;lon;timestamp;P1;durP1;ratioP1;P2;durP2;ratioP2
6821;SDS011;3449;48.728;8.968;2023-03-23T00:01:23;1.83;;;0.93;;
6821;SDS011;3449;48.728;8.968;2023-03-23T00:03:52;1.37;;;1.27;;
6821;SDS011;3449;48.728;8.968;2023-03-23T00:06:22;2.90;;;0.97;;
6821;SDS011;3449;48.728;8.968;2023-03-23T00:08:50;1.87;;;1.37;;
6821;SDS011;3449;48.728;8.968;2023-03-23T00:11:22;1.90;;;1.10;;
6821;SDS011;3449;48.728;8.968;2023-03-23T00:13:51;1.00;;;0.90;;
6821;SDS011;3449;48.728;8.968;2023-03-23T00:16:19;1.70;;;0.93;;
6821;SDS011;3449;48.728;8.968;2023-03-23T00:18:57;1.10;;;1.00;;
6821;SDS011;3449;48.728;8.968;2023-03-23T00:21:25;1.43;;;1.10;;
6821;SDS011;3449;48.728;8.968;2023-03-23T00:24:00;1.17;;;1.07;;
6821;SDS011;3449;48.728;8.968;2023-03-23T00:26:28;2.20;;;1.07;;
6821;SDS011;3449;48.728;8.968;2023-03-23T00:28:58;4.13;;;1.10;;
6821;SDS011;3449;48.728;8.968;2023-03-23T00:31:26;4.33;;;0.90;;
6821;SDS011;3449;48.728;8.968;2023-03-23T00:33:58;1.27;;;1.10;;
6821;SDS011;3449;48.728;8.968;2023-03-23T00:36:29;1.13;;;0.90;;
6821;SDS011;3449;48.728;8.968;2023-03-23T00:38:56;1.37;;;1.00;;
6821;SDS011;3449;48.728;8.968;2023-03-23T00:41:24;3.63;;;1.13;;
6821;SDS011;3449;48.728;8.968;2023-03-23T00:43:53;0.93;;;0.80;;
6821;SDS011;3449;48.728;8.968;2023-03-23T00:46:20;4.93;;;1.27;;
6821;SDS011;3449;48.728;8.968;2023-03-23T00:48:47;2.07;;;1.30;;
6821;SDS011;3449;48.728;8.968;2023-03-23T00:51:17;1.57;;;1.47;;
6821;SDS011;3449;48.728;8.968;2023-03-23T00:53:44;2.73;;;1.53;;
6821;SDS011;3449;48.728;8.968;2023-03-23T00:56:11;1.30;;;1.20;;
6821;SDS011;3449;48.728;8.968;2023-03-23T00:58:38;2.33;;;1.60;;
6821;SDS011;3449;48.728;8.968;2023-03-23T01:01:06;1.33;;;1.20;;
6821;SDS011;3449;48.728;8.968;2023-03-23T01:03:34;1.60;;;1.30;;
6821;SDS011;3449;48.728;8.968;2023-03-23T01:06:04;5.27;;;1.57;;
6821;SDS011;3449;48.728;8.968;2023-03-23T01:08:34;1.77;;;1.67;;
6821;SDS011;3449;48.728;8.968;2023-03-23T01:11:04;2.30;;;1.47;;
6821;SDS011;3449;48.728;8.968;2023-03-23T01:13:32;1.27;;;1.20;;
6821;SDS011;3449;48.728;8.968;2023-03-23T01:15:59;1.70;;;1.03;;
6821;SDS011;3449;48.728;8.968;2023-03-23T01:18:26;1.77;;;1.43;;
6821;SDS011;3449;48.728;8.968;2023-03-23T01:20:53;3.00;;;1.37;;
6821;SDS011;3449;48.728;8.968;2023-03-23T01:23:20;1.97;;;1.47;;
6821;SDS011;3449;48.728;8.968;2023-03-23T01:25:48;1.00;;;0.97;;
6821;SDS011;3449;48.728;8.968;2023-03-23T01:28:15;1.30;;;1.20;;
6821;SDS011;3449;48.728;8.968;2023-03-23T01:30:42;3.03;;;1.20;;
6821;SDS011;3449;48.728;8.968;2023-03-23T01:33:09;2.30;;;1.33;;
6821;SDS011;3449;48.728;8.968;2023-03-23T01:35:37;2.40;;;1.40;;
6821;SDS011;3449;48.728;8.968;2023-03-23T01:38:04;3.53;;;1.40;;
6821;SDS011;3449;48.728;8.968;2023-03-23T01:40:31;2.60;;;1.37;;
6821;SDS011;3449;48.728;8.968;2023-03-23T01:42:59;1.60;;;1.30;;
6821;SDS011;3449;48.728;8.968;2023-03-23T01:45:27;1.80;;;1.40;;
6821;SDS011;3449;48.728;8.968;2023-03-23T01:48:03;3.80;;;1.43;;
6821;SDS011;3449;48.728;8.968;2023-03-23T01:50:37;1.87;;;1.20;;
6821;SDS011;3449;48.728;8.968;2023-03-23T01:53:09;2.30;;;1.20;;
6821;SDS011;3449;48.728;8.968;2023-03-23T01:55:38;2.70;;;1.77;;
6821;SDS011;3449;48.728;8.968;2023-03-23T01:58:08;1.63;;;1.50;;
6821;SDS011;3449;48.728;8.968;2023-03-23T02:00:37;1.70;;;1.37;;
6821;SDS011;3449;48.728;8.968;2023-03-23T02:03:07;2.87;;;1.43;;
6821;SDS011;3449;48.728;8.968;2023-03-23T02:05:38;1.73;;;1.63;;
6821;SDS011;3449;48.728;8.968;2023-03-23T02:08:07;1.90;;;1.47;;
6821;SDS011;3449;48.728;8.968;2023-03-23T02:10:35;1.63;;;1.40;;
6821;SDS011;3449;48.728;8.968;2023-03-23T02:13:06;2.60;;;1.80;;
6821;SDS011;3449;48.728;8.968;2023-03-23T02:15:39;1.30;;;1.20;;
6821;SDS011;3449;48.728;8.968;2023-03-23T02:21:19;2.80;;;1.33;;
6821;SDS011;3449;48.728;8.968;2023-03-23T02:24:28;2.13;;;1.93;;
6821;SDS011;3449;48.728;8.968;2023-03-23T02:27:16;1.50;;;1.40;;
6821;SDS011;3449;48.728;8.968;2023-03-23T02:35:54;2.60;;;2.40;;
6821;SDS011;3449;48.728;8.968;2023-03-23T02:38:26;1.77;;;1.67;;
6821;SDS011;3449;48.728;8.968;2023-03-23T02:40:57;2.43;;;2.00;;
6821;SDS011;3449;48.728;8.968;2023-03-23T02:43:28;1.60;;;1.50;;
6821;SDS011;3449;48.728;8.968;2023-03-23T02:45:59;3.80;;;1.70;;
6821;SDS011;3449;48.728;8.968;2023-03-23T02:48:29;1.70;;;1.60;;
6821;SDS011;3449;48.728;8.968;2023-03-23T02:50:56;2.00;;;1.90;;
6821;SDS011;3449;48.728;8.968;2023-03-23T02:53:25;2.03;;;1.67;;
6821;SDS011;3449;48.728;8.968;2023-03-23T02:55:55;2.30;;;2.10;;
6821;SDS011;3449;48.728;8.968;2023-03-23T02:58:24;2.03;;;1.90;;
6821;SDS011;3449;48.728;8.968;2023-03-23T03:00:51;3.53;;;1.80;;
6821;SDS011;3449;48.728;8.968;2023-03-23T03:03:21;1.70;;;1.60;;
6821;SDS011;3449;48.728;8.968;2023-03-23T03:05:55;2.40;;;1.93;;
6821;SDS011;3449;48.728;8.968;2023-03-23T03:08:34;2.53;;;2.33;;
6821;SDS011;3449;48.728;8.968;2023-03-23T03:11:06;2.60;;;1.90;;
6821;SDS011;3449;48.728;8.968;2023-03-23T03:13:36;8.83;;;3.33;;
6821;SDS011;3449;48.728;8.968;2023-03-23T03:16:14;4.33;;;3.63;;
6821;SDS011;3449;48.728;8.968;2023-03-23T03:18:50;3.33;;;3.00;;
6821;SDS011;3449;48.728;8.968;2023-03-23T03:21:23;4.47;;;4.07;;
6821;SDS011;3449;48.728;8.968;2023-03-23T03:23:53;9.67;;;5.63;;
6821;SDS011;3449;48.728;8.968;2023-03-23T03:26:24;10.90;;;4.80;;
6821;SDS011;3449;48.728;8.968;2023-03-23T03:28:53;13.33;;;7.37;;
6821;SDS011;3449;48.728;8.968;2023-03-23T03:31:21;4.67;;;3.33;;
6821;SDS011;3449;48.728;8.968;2023-03-23T03:33:52;4.90;;;3.10;;
6821;SDS011;3449;48.728;8.968;2023-03-23T03:36:21;7.20;;;3.00;;
6821;SDS011;3449;48.728;8.968;2023-03-23T03:38:53;6.10;;;3.33;;
6821;SDS011;3449;48.728;8.968;2023-03-23T03:41:22;6.07;;;3.53;;
6821;SDS011;3449;48.728;8.968;2023-03-23T03:43:49;3.50;;;2.70;;
6821;SDS011;3449;48.728;8.968;2023-03-23T03:46:16;7.00;;;2.90;;
6821;SDS011;3449;48.728;8.968;2023-03-23T03:48:42;3.70;;;2.43;;
6821;SDS011;3449;48.728;8.968;2023-03-23T03:51:09;2.77;;;2.50;;
6821;SDS011;3449;48.728;8.968;2023-03-23T03:53:37;3.00;;;1.90;;
6821;SDS011;3449;48.728;8.968;2023-03-23T03:56:05;2.03;;;1.83;;
6821;SDS011;3449;48.728;8.968;2023-03-23T03:58:32;3.20;;;2.00;;
6821;SDS011;3449;48.728;8.968;2023-03-23T04:01:01;2.10;;;2.00;;
6821;SDS011;3449;48.728;8.968;2023-03-23T04:03:28;2.97;;;2.03;;
6821;SDS011;3449;48.728;8.968;2023-03-23T04:05:55;1.40;;;1.30;;
6821;SDS011;3449;48.728;8.968;2023-03-23T04:08:24;1.80;;;1.40;;
6821;SDS011;3449;48.728;8.968;2023-03-23T04:10:54;2.20;;;1.73;;
6821;SDS011;3449;48.728;8.968;2023-03-23T04:13:21;8.43;;;1.50;;
6821;SDS011;3449;48.728;8.968;2023-03-23T04:15:48;2.10;;;1.47;;
6821;SDS011;3449;48.728;8.968;2023-03-23T04:18:16;7.13;;;1.60;;
6821;SDS011;3449;48.728;8.968;2023-03-23T04:20:44;2.80;;;1.40;;
6821;SDS011;3449;48.728;8.968;2023-03-23T04:23:13;9.13;;;1.67;;
6821;SDS011;3449;48.728;8.968;2023-03-23T04:25:44;1.70;;;1.50;;
6821;SDS011;3449;48.728;8.968;2023-03-23T04:28:13;6.20;;;1.73;;
6821;SDS011;3449;48.728;8.968;2023-03-23T04:30:41;1.60;;;1.50;;
6821;SDS011;3449;48.728;8.968;2023-03-23T04:33:08;1.50;;;1.40;;
6821;SDS011;3449;48.728;8.968;2023-03-23T04:35:39;3.00;;;1.50;;
6821;SDS011;3449;48.728;8.968;2023-03-23T04:38:07;5.43;;;2.20;;
6821;SDS011;3449;48.728;8.968;2023-03-23T04:40:35;4.20;;;2.20;;
6821;SDS011;3449;48.728;8.968;2023-03-23T04:43:02;2.17;;;1.97;;
6821;SDS011;3449;48.728;8.968;2023-03-23T04:45:32;4.10;;;1.80;;
6821;SDS011;3449;48.728;8.968;2023-03-23T04:48:02;4.40;;;2.00;;
6821;SDS011;3449;48.728;8.968;2023-03-23T04:50:32;1.87;;;1.63;;
6821;SDS011;3449;48.728;8.968;2023-03-23T04:52:59;2.17;;;1.37;;
6821;SDS011;3449;48.728;8.968;2023-03-23T04:55:29;2.60;;;1.40;;
6821;SDS011;3449;48.728;8.968;2023-03-23T04:57:57;2.87;;;1.57;;
6821;SDS011;3449;48.728;8.968;2023-03-23T05:00:25;3.67;;;1.90;;
6821;SDS011;3449;48.728;8.968;2023-03-23T05:02:53;2.27;;;1.40;;
6821;SDS011;3449;48.728;8.968;2023-03-23T05:05:20;1.30;;;1.10;;
6821;SDS011;3449;48.728;8.968;2023-03-23T05:07:48;2.40;;;2.00;;
6821;SDS011;3449;48.728;8.968;2023-03-23T05:10:15;3.27;;;1.80;;
6821;SDS011;3449;48.728;8.968;2023-03-23T05:12:42;1.60;;;1.50;;
6821;SDS011;3449;48.728;8.968;2023-03-23T05:15:13;1.50;;;1.40;;
6821;SDS011;3449;48.728;8.968;2023-03-23T05:17:41;1.77;;;1.60;;
6821;SDS011;3449;48.728;8.968;2023-03-23T05:20:11;2.43;;;1.60;;
6821;SDS011;3449;48.728;8.968;2023-03-23T05:22:39;2.00;;;1.47;;
6821;SDS011;3449;48.728;8.968;2023-03-23T05:25:09;2.30;;;1.03;;
6821;SDS011;3449;48.728;8.968;2023-03-23T05:27:36;1.53;;;1.30;;
6821;SDS011;3449;48.728;8.968;2023-03-23T05:30:04;2.87;;;1.70;;
6821;SDS011;3449;48.728;8.968;2023-03-23T05:32:32;1.73;;;1.63;;
6821;SDS011;3449;48.728;8.968;2023-03-23T05:34:59;3.47;;;1.40;;
6821;SDS011;3449;48.728;8.968;2023-03-23T05:37:29;4.23;;;1.87;;
6821;SDS011;3449;48.728;8.968;2023-03-23T05:39:57;2.40;;;2.00;;
6821;SDS011;3449;48.728;8.968;2023-03-23T05:42:30;2.23;;;1.20;;
6821;SDS011;3449;48.728;8.968;2023-03-23T05:44:57;4.73;;;1.53;;
6821;SDS011;3449;48.728;8.968;2023-03-23T05:47:25;2.10;;;1.30;;
6821;SDS011;3449;48.728;8.968;2023-03-23T05:49:52;5.17;;;1.70;;
6821;SDS011;3449;48.728;8.968;2023-03-23T05:52:19;3.30;;;1.70;;
6821;SDS011;3449;48.728;8.968;2023-03-23T05:54:50;11.13;;;1.80;;
6821;SDS011;3449;48.728;8.968;2023-03-23T05:57:17;5.13;;;1.83;;
6821;SDS011;3449;48.728;8.968;2023-03-23T05:59:46;2.83;;;1.53;;
6821;SDS011;3449;48.728;8.968;2023-03-23T06:02:13;1.80;;;1.53;;
6821;SDS011;3449;48.728;8.968;2023-03-23T06:04:40;4.17;;;1.93;;
6821;SDS011;3449;48.728;8.968;2023-03-23T06:07:07;5.43;;;2.10;;
6821;SDS011;3449;48.728;8.968;2023-03-23T06:09:37;2.10;;;1.90;;
6821;SDS011;3449;48.728;8.968;2023-03-23T06:12:07;1.40;;;1.20;;
6821;SDS011;3449;48.728;8.968;2023-03-23T06:14:35;1.90;;;1.27;;
6821;SDS011;3449;48.728;8.968;2023-03-23T06:17:02;2.10;;;1.70;;
6821;SDS011;3449;48.728;8.968;2023-03-23T06:19:29;6.07;;;2.10;;
6821;SDS011;3449;48.728;8.968;2023-03-23T06:21:56;2.17;;;1.77;;
6821;SDS011;3449;48.728;8.968;2023-03-23T06:24:24;1.80;;;1.50;;
6821;SDS011;3449;48.728;8.968;2023-03-23T06:26:51;2.30;;;2.10;;
6821;SDS011;3449;48.728;8.968;2023-03-23T06:29:19;1.70;;;1.60;;
6821;SDS011;3449;48.728;8.968;2023-03-23T06:31:47;1.87;;;1.67;;
6821;SDS011;3449;48.728;8.968;2023-03-23T06:34:17;4.93;;;1.73;;
6821;SDS011;3449;48.728;8.968;2023-03-23T06:36:44;1.90;;;1.77;;
6821;SDS011;3449;48.728;8.968;2023-03-23T06:39:11;2.77;;;1.70;;
6821;SDS011;3449;48.728;8.968;2023-03-23T06:41:38;5.53;;;1.97;;
6821;SDS011;3449;48.728;8.968;2023-03-23T06:44:06;2.17;;;1.50;;
6821;SDS011;3449;48.728;8.968;2023-03-23T06:46:34;2.00;;;1.80;;
6821;SDS011;3449;48.728;8.968;2023-03-23T06:49:01;1.50;;;1.40;;
6821;SDS011;3449;48.728;8.968;2023-03-23T06:51:28;4.50;;;1.87;;
6821;SDS011;3449;48.728;8.968;2023-03-23T06:53:55;1.87;;;1.77;;
6821;SDS011;3449;48.728;8.968;2023-03-23T06:56:22;4.60;;;2.13;;
6821;SDS011;3449;48.728;8.968;2023-03-23T06:58:49;2.93;;;1.57;;
6821;SDS011;3449;48.728;8.968;2023-03-23T07:01:16;15.23;;;1.90;;
6821;SDS011;3449;48.728;8.968;2023-03-23T07:03:44;1.80;;;1.60;;
6821;SDS011;3449;48.728;8.968;2023-03-23T07:06:11;2.53;;;1.37;;
6821;SDS011;3449;48.728;8.968;2023-03-23T07:08:38;4.20;;;2.03;;
6821;SDS011;3449;48.728;8.968;2023-03-23T07:11:05;3.57;;;1.70;;
6821;SDS011;3449;48.728;8.968;2023-03-23T07:13:32;2.20;;;1.70;;
6821;SDS011;3449;48.728;8.968;2023-03-23T07:15:59;4.57;;;1.53;;
6821;SDS011;3449;48.728;8.968;2023-03-23T07:18:26;1.70;;;1.60;;
6821;SDS011;3449;48.728;8.968;2023-03-23T07:20:55;3.10;;;1.90;;
6821;SDS011;3449;48.728;8.968;2023-03-23T07:23:21;1.80;;;1.67;;
6821;SDS011;3449;48.728;8.968;2023-03-23T07:25:48;2.80;;;1.63;;
6821;SDS011;3449;48.728;8.968;2023-03-23T07:28:15;2.60;;;2.10;;
6821;SDS011;3449;48.728;8.968;2023-03-23T07:30:43;2.20;;;1.63;;
6821;SDS011;3449;48.728;8.968;2023-03-23T07:33:10;1.70;;;1.60;;
6821;SDS011;3449;48.728;8.968;2023-03-23T07:35:37;4.40;;;2.20;;
6821;SDS011;3449;48.728;8.968;2023-03-23T07:38:06;3.23;;;2.57;;
6821;SDS011;3449;48.728;8.968;2023-03-23T07:40:33;5.60;;;2.33;;
6821;SDS011;3449;48.728;8.968;2023-03-23T07:43:02;4.57;;;2.27;;
6821;SDS011;3449;48.728;8.968;2023-03-23T07:45:29;4.20;;;2.37;;
6821;SDS011;3449;48.728;8.968;2023-03-23T07:47:57;2.30;;;1.43;;
6821;SDS011;3449;48.728;8.968;2023-03-23T07:50:25;2.60;;;1.37;;
6821;SDS011;3449;48.728;8.968;2023-03-23T07:52:53;2.40;;;1.53;;
6821;SDS011;3449;48.728;8.968;2023-03-23T07:55:22;3.30;;;1.67;;
6821;SDS011;3449;48.728;8.968;2023-03-23T07:57:50;1.50;;;1.40;;
6821;SDS011;3449;48.728;8.968;2023-03-23T08:00:19;2.50;;;1.27;;
6821;SDS011;3449;48.728;8.968;2023-03-23T08:02:49;1.20;;;1.10;;
6821;SDS011;3449;48.728;8.968;2023-03-23T08:05:17;1.40;;;1.30;;
6821;SDS011;3449;48.728;8.968;2023-03-23T08:07:45;4.57;;;1.73;;
6821;SDS011;3449;48.728;8.968;2023-03-23T08:10:13;2.87;;;1.33;;
6821;SDS011;3449;48.728;8.968;2023-03-23T08:12:43;1.90;;;1.40;;
6821;SDS011;3449;48.728;8.968;2023-03-23T08:15:11;1.40;;;1.30;;
6821;SDS011;3449;48.728;8.968;2023-03-23T08:17:39;1.80;;;1.50;;
6821;SDS011;3449;48.728;8.968;2023-03-23T08:20:07;2.10;;;1.50;;
6821;SDS011;3449;48.728;8.968;2023-03-23T08:22:37;8.53;;;1.23;;
6821;SDS011;3449;48.728;8.968;2023-03-23T08:25:05;1.53;;;1.30;;
6821;SDS011;3449;48.728;8.968;2023-03-23T08:27:34;2.97;;;1.70;;
6821;SDS011;3449;48.728;8.968;2023-03-23T08:30:03;2.00;;;1.70;;
6821;SDS011;3449;48.728;8.968;2023-03-23T08:32:32;1.70;;;1.60;;
6821;SDS011;3449;48.728;8.968;2023-03-23T08:35:00;2.73;;;1.90;;
6821;SDS011;3449;48.728;8.968;2023-03-23T08:37:27;4.30;;;1.90;;
6821;SDS011;3449;48.728;8.968;2023-03-23T08:39:54;2.13;;;1.60;;
6821;SDS011;3449;48.728;8.968;2023-03-23T08:42:22;2.87;;;1.90;;
6821;SDS011;3449;48.728;8.968;2023-03-23T08:44:50;3.80;;;1.57;;
6821;SDS011;3449;48.728;8.968;2023-03-23T08:47:18;2.90;;;1.77;;
6821;SDS011;3449;48.728;8.968;2023-03-23T08:49:45;1.80;;;1.40;;
6821;SDS011;3449;48.728;8.968;2023-03-23T08:52:17;4.60;;;1.70;;
6821;SDS011;3449;48.728;8.968;2023-03-23T08:54:44;2.60;;;1.63;;
6821;SDS011;3449;48.728;8.968;2023-03-23T08:57:12;3.13;;;1.90;;
6821;SDS011;3449;48.728;8.968;2023-03-23T08:59:40;2.10;;;1.60;;
6821;SDS011;3449;48.728;8.968;2023-03-23T09:02:08;1.93;;;1.47;;
6821;SDS011;3449;48.728;8.968;2023-03-23T09:04:38;1.43;;;1.37;;
6821;SDS011;3449;48.728;8.968;2023-03-23T09:07:07;2.53;;;1.70;;
6821;SDS011;3449;48.728;8.968;2023-03-23T09:09:36;4.70;;;1.70;;
6821;SDS011;3449;48.728;8.968;2023-03-23T09:12:04;1.93;;;1.10;;
6821;SDS011;3449;48.728;8.968;2023-03-23T09:14:31;4.07;;;1.80;;
6821;SDS011;3449;48.728;8.968;2023-03-23T09:16:58;1.70;;;1.60;;
6821;SDS011;3449;48.728;8.968;2023-03-23T09:19:25;2.00;;;1.50;;
6821;SDS011;3449;48.728;8.968;2023-03-23T09:21:54;1.40;;;1.30;;
6821;SDS011;3449;48.728;8.968;2023-03-23T09:24:21;2.00;;;1.80;;
6821;SDS011;3449;48.728;8.968;2023-03-23T09:26:48;2.43;;;1.70;;
6821;SDS011;3449;48.728;8.968;2023-03-23T09:29:15;1.53;;;1.37;;
6821;SDS011;3449;48.728;8.968;2023-03-23T09:31:41;1.50;;;1.47;;
6821;SDS011;3449;48.728;8.968;2023-03-23T09:34:11;1.73;;;1.47;;
6821;SDS011;3449;48.728;8.968;2023-03-23T09:36:40;1.23;;;1.13;;
6821;SDS011;3449;48.728;8.968;2023-03-23T09:39:09;1.70;;;1.30;;
6821;SDS011;3449;48.728;8.968;2023-03-23T09:41:44;1.47;;;1.33;;
6821;SDS011;3449;48.728;8.968;2023-03-23T09:44:25;5.03;;;1.27;;
6821;SDS011;3449;48.728;8.968;2023-03-23T09:47:01;2.10;;;1.60;;
6821;SDS011;3449;48.728;8.968;2023-03-23T09:49:33;3.13;;;1.30;;
6821;SDS011;3449;48.728;8.968;2023-03-23T09:52:05;4.50;;;1.90;;
6821;SDS011;3449;48.728;8.968;2023-03-23T09:54:38;1.50;;;1.40;;
6821;SDS011;3449;48.728;8.968;2023-03-23T09:57:11;1.60;;;1.50;;
6821;SDS011;3449;48.728;8.968;2023-03-23T09:59:44;1.73;;;1.63;;
6821;SDS011;3449;48.728;8.968;2023-03-23T10:02:17;1.87;;;1.30;;
6821;SDS011;3449;48.728;8.968;2023-03-23T10:04:50;1.70;;;1.60;;
6821;SDS011;3449;48.728;8.968;2023-03-23T10:07:21;1.40;;;1.30;;
6821;SDS011;3449;48.728;8.968;2023-03-23T10:09:53;2.80;;;1.50;;
6821;SDS011;3449;48.728;8.968;2023-03-23T10:12:25;1.97;;;1.57;;
6821;SDS011;3449;48.728;8.968;2023-03-23T10:14:59;1.87;;;1.60;;
6821;SDS011;3449;48.728;8.968;2023-03-23T10:17:35;2.93;;;1.57;;
6821;SDS011;3449;48.728;8.968;2023-03-23T10:22:58;2.00;;;1.90;;
6821;SDS011;3449;48.728;8.968;2023-03-23T10:25:34;2.33;;;1.77;;
6821;SDS011;3449;48.728;8.968;2023-03-23T10:28:04;2.87;;;1.37;;
6821;SDS011;3449;48.728;8.968;2023-03-23T10:30:38;1.67;;;1.57;;
6821;SDS011;3449;48.728;8.968;2023-03-23T10:33:10;3.60;;;1.80;;
6821;SDS011;3449;48.728;8.968;2023-03-23T10:35:43;2.17;;;1.70;;
6821;SDS011;3449;48.728;8.968;2023-03-23T10:38:14;1.73;;;1.63;;
6821;SDS011;3449;48.728;8.968;2023-03-23T10:40:48;2.07;;;1.90;;
6821;SDS011;3449;48.728;8.968;2023-03-23T10:43:17;2.57;;;1.90;;
6821;SDS011;3449;48.728;8.968;2023-03-23T10:45:45;1.33;;;1.27;;
6821;SDS011;3449;48.728;8.968;2023-03-23T10:48:21;1.70;;;1.40;;
6821;SDS011;3449;48.728;8.968;2023-03-23T10:50:52;1.63;;;1.40;;
6821;SDS011;3449;48.728;8.968;2023-03-23T10:53:23;1.77;;;1.67;;
6821;SDS011;3449;48.728;8.968;2023-03-23T10:55:56;1.60;;;1.50;;
6821;SDS011;3449;48.728;8.968;2023-03-23T10:58:24;4.37;;;1.77;;
6821;SDS011;3449;48.728;8.968;2023-03-23T11:00:54;1.60;;;1.50;;
6821;SDS011;3449;48.728;8.968;2023-03-23T11:03:24;5.90;;;2.13;;
6821;SDS011;3449;48.728;8.968;2023-03-23T11:05:56;1.80;;;1.60;;
6821;SDS011;3449;48.728;8.968;2023-03-23T11:08:25;2.47;;;1.70;;
6821;SDS011;3449;48.728;8.968;2023-03-23T11:10:56;1.73;;;1.47;;
6821;SDS011;3449;48.728;8.968;2023-03-23T11:13:27;1.40;;;1.30;;
6821;SDS011;3449;48.728;8.968;2023-03-23T11:15:56;2.97;;;2.00;;
6821;SDS011;3449;48.728;8.968;2023-03-23T11:18:25;1.57;;;1.40;;
6821;SDS011;3449;48.728;8.968;2023-03-23T11:21:01;2.40;;;1.97;;
6821;SDS011;3449;48.728;8.968;2023-03-23T11:23:29;1.50;;;1.40;;
6821;SDS011;3449;48.728;8.968;2023-03-23T11:26:03;1.57;;;1.47;;
6821;SDS011;3449;48.728;8.968;2023-03-23T11:28:36;1.93;;;1.60;;
6821;SDS011;3449;48.728;8.968;2023-03-23T11:31:08;2.10;;;1.60;;
6821;SDS011;3449;48.728;8.968;2023-03-23T11:33:37;2.03;;;1.57;;
6821;SDS011;3449;48.728;8.968;2023-03-23T11:36:17;3.57;;;1.63;;
6821;SDS011;3449;48.728;8.968;2023-03-23T11:38:44;2.40;;;1.80;;
6821;SDS011;3449;48.728;8.968;2023-03-23T11:41:17;3.27;;;1.60;;
6821;SDS011;3449;48.728;8.968;2023-03-23T11:43:45;3.17;;;2.10;;
6821;SDS011;3449;48.728;8.968;2023-03-23T11:46:16;2.03;;;1.50;;
6821;SDS011;3449;48.728;8.968;2023-03-23T11:48:52;2.63;;;1.70;;
6821;SDS011;3449;48.728;8.968;2023-03-23T11:51:24;6.60;;;1.53;;
6821;SDS011;3449;48.728;8.968;2023-03-23T11:53:59;1.50;;;1.40;;
6821;SDS011;3449;48.728;8.968;2023-03-23T11:56:33;2.10;;;1.70;;
6821;SDS011;3449;48.728;8.968;2023-03-23T11:59:01;1.47;;;1.40;;
6821;SDS011;3449;48.728;8.968;2023-03-23T12:01:41;2.73;;;1.80;;
6821;SDS011;3449;48.728;8.968;2023-03-23T12:04:23;3.17;;;1.97;;
6821;SDS011;3449;48.728;8.968;2023-03-23T12:10:02;1.50;;;1.40;;
6821;SDS011;3449;48.728;8.968;2023-03-23T12:12:43;1.50;;;1.40;;
6821;SDS011;3449;48.728;8.968;2023-03-23T12:15:18;1.03;;;1.03;;
6821;SDS011;3449;48.728;8.968;2023-03-23T12:17:56;1.57;;;1.30;;
6821;SDS011;3449;48.728;8.968;2023-03-23T12:20:35;5.43;;;1.43;;
6821;SDS011;3449;48.728;8.968;2023-03-23T12:23:18;1.90;;;1.70;;
6821;SDS011;3449;48.728;8.968;2023-03-23T12:25:52;2.03;;;1.40;;
6821;SDS011;3449;48.728;8.968;2023-03-23T12:28:40;1.73;;;1.60;;
6821;SDS011;3449;48.728;8.968;2023-03-23T12:31:27;2.30;;;1.63;;
6821;SDS011;3449;48.728;8.968;2023-03-23T12:34:01;2.00;;;1.50;;
6821;SDS011;3449;48.728;8.968;2023-03-23T12:36:39;1.90;;;1.50;;
6821;SDS011;3449;48.728;8.968;2023-03-23T12:42:17;2.03;;;1.40;;
6821;SDS011;3449;48.728;8.968;2023-03-23T12:44:52;2.67;;;1.80;;
6821;SDS011;3449;48.728;8.968;2023-03-23T12:47:28;2.30;;;2.10;;
6821;SDS011;3449;48.728;8.968;2023-03-23T12:50:04;2.60;;;1.87;;
6821;SDS011;3449;48.728;8.968;2023-03-23T12:52:37;1.57;;;1.40;;
6821;SDS011;3449;48.728;8.968;2023-03-23T12:55:13;1.80;;;1.70;;
6821;SDS011;3449;48.728;8.968;2023-03-23T12:57:45;1.70;;;1.57;;
6821;SDS011;3449;48.728;8.968;2023-03-23T13:00:21;3.13;;;1.37;;
6821;SDS011;3449;48.728;8.968;2023-03-23T13:02:52;1.70;;;1.60;;
6821;SDS011;3449;48.728;8.968;2023-03-23T13:05:27;3.70;;;1.60;;
6821;SDS011;3449;48.728;8.968;2023-03-23T13:08:06;1.30;;;1.20;;
6821;SDS011;3449;48.728;8.968;2023-03-23T13:10:38;1.77;;;1.50;;
6821;SDS011;3449;48.728;8.968;2023-03-23T13:13:08;1.80;;;1.70;;
6821;SDS011;3449;48.728;8.968;2023-03-23T13:15:44;2.97;;;1.60;;
6821;SDS011;3449;48.728;8.968;2023-03-23T13:18:18;1.80;;;1.70;;
6821;SDS011;3449;48.728;8.968;2023-03-23T13:20:55;1.40;;;1.30;;
6821;SDS011;3449;48.728;8.968;2023-03-23T13:23:28;1.60;;;1.30;;
6821;SDS011;3449;48.728;8.968;2023-03-23T13:25:59;2.87;;;1.80;;
6821;SDS011;3449;48.728;8.968;2023-03-23T13:28:29;3.33;;;1.33;;
6821;SDS011;3449;48.728;8.968;2023-03-23T13:31:00;1.53;;;1.40;;
6821;SDS011;3449;48.728;8.968;2023-03-23T13:33:30;2.37;;;1.60;;
6821;SDS011;3449;48.728;8.968;2023-03-23T13:36:02;2.23;;;1.70;;
6821;SDS011;3449;48.728;8.968;2023-03-23T13:38:33;1.63;;;1.40;;
6821;SDS011;3449;48.728;8.968;2023-03-23T13:41:05;2.57;;;1.63;;
6821;SDS011;3449;48.728;8.968;2023-03-23T13:43:35;1.70;;;1.40;;
6821;SDS011;3449;48.728;8.968;2023-03-23T13:46:10;2.10;;;1.93;;
6821;SDS011;3449;48.728;8.968;2023-03-23T13:48:40;3.03;;;1.23;;
6821;SDS011;3449;48.728;8.968;2023-03-23T13:51:23;3.53;;;2.00;;
6821;SDS011;3449;48.728;8.968;2023-03-23T13:54:03;4.43;;;1.43;;
6821;SDS011;3449;48.728;8.968;2023-03-23T13:56:41;2.10;;;1.40;;
6821;SDS011;3449;48.728;8.968;2023-03-23T13:59:13;1.43;;;1.33;;
6821;SDS011;3449;48.728;8.968;2023-03-23T14:01:42;2.30;;;1.37;;
6821;SDS011;3449;48.728;8.968;2023-03-23T14:04:11;2.40;;;1.70;;
6821;SDS011;3449;48.728;8.968;2023-03-23T14:06:40;3.33;;;1.57;;
6821;SDS011;3449;48.728;8.968;2023-03-23T14:09:10;3.33;;;1.67;;
6821;SDS011;3449;48.728;8.968;2023-03-23T14:11:47;1.80;;;1.63;;
6821;SDS011;3449;48.728;8.968;2023-03-23T14:14:21;1.43;;;1.20;;
6821;SDS011;3449;48.728;8.968;2023-03-23T14:16:52;2.33;;;1.37;;
6821;SDS011;3449;48.728;8.968;2023-03-23T14:19:31;3.00;;;1.90;;
6821;SDS011;3449;48.728;8.968;2023-03-23T14:21:58;3.17;;;1.90;;
6821;SDS011;3449;48.728;8.968;2023-03-23T14:24:26;3.67;;;1.90;;
6821;SDS011;3449;48.728;8.968;2023-03-23T14:27:01;3.13;;;1.63;;
6821;SDS011;3449;48.728;8.968;2023-03-23T14:29:34;2.60;;;1.80;;
6821;SDS011;3449;48.728;8.968;2023-03-23T14:32:04;1.77;;;1.20;;
6821;SDS011;3449;48.728;8.968;2023-03-23T14:34:32;2.77;;;2.20;;
6821;SDS011;3449;48.728;8.968;2023-03-23T14:37:00;3.07;;;1.47;;
6821;SDS011;3449;48.728;8.968;2023-03-23T14:39:28;4.50;;;1.93;;
6821;SDS011;3449;48.728;8.968;2023-03-23T14:42:00;3.80;;;2.07;;
6821;SDS011;3449;48.728;8.968;2023-03-23T14:44:31;7.20;;;2.27;;
6821;SDS011;3449;48.728;8.968;2023-03-23T14:47:06;1.80;;;1.70;;
6821;SDS011;3449;48.728;8.968;2023-03-23T14:49:42;4.00;;;1.47;;
6821;SDS011;3449;48.728;8.968;2023-03-23T14:52:11;2.80;;;1.77;;
6821;SDS011;3449;48.728;8.968;2023-03-23T14:54:39;1.43;;;1.33;;
6821;SDS011;3449;48.728;8.968;2023-03-23T14:57:11;2.73;;;1.77;;
6821;SDS011;3449;48.728;8.968;2023-03-23T14:59:40;2.00;;;1.47;;
6821;SDS011;3449;48.728;8.968;2023-03-23T15:02:12;2.07;;;1.70;;
6821;SDS011;3449;48.728;8.968;2023-03-23T15:04:42;1.60;;;1.50;;
6821;SDS011;3449;48.728;8.968;2023-03-23T15:07:12;2.13;;;1.90;;
6821;SDS011;3449;48.728;8.968;2023-03-23T15:09:42;2.00;;;1.80;;
6821;SDS011;3449;48.728;8.968;2023-03-23T15:12:13;3.77;;;1.50;;
6821;SDS011;3449;48.728;8.968;2023-03-23T15:14:47;3.10;;;2.17;;
6821;SDS011;3449;48.728;8.968;2023-03-23T15:17:19;2.30;;;1.60;;
6821;SDS011;3449;48.728;8.968;2023-03-23T15:19:48;2.97;;;2.10;;
6821;SDS011;3449;48.728;8.968;2023-03-23T15:22:18;1.63;;;1.50;;
6821;SDS011;3449;48.728;8.968;2023-03-23T15:24:47;7.07;;;1.63;;
6821;SDS011;3449;48.728;8.968;2023-03-23T15:27:15;2.80;;;1.70;;
6821;SDS011;3449;48.728;8.968;2023-03-23T15:29:47;3.77;;;1.60;;
6821;SDS011;3449;48.728;8.968;2023-03-23T15:32:24;3.60;;;2.17;;
6821;SDS011;3449;48.728;8.968;2023-03-23T15:34:52;3.87;;;1.67;;
6821;SDS011;3449;48.728;8.968;2023-03-23T15:37:21;1.90;;;1.43;;
6821;SDS011;3449;48.728;8.968;2023-03-23T15:39:52;3.40;;;1.67;;
6821;SDS011;3449;48.728;8.968;2023-03-23T15:42:21;2.10;;;1.60;;
6821;SDS011;3449;48.728;8.968;2023-03-23T15:44:56;4.13;;;1.80;;
6821;SDS011;3449;48.728;8.968;2023-03-23T15:47:37;1.80;;;1.70;;
6821;SDS011;3449;48.728;8.968;2023-03-23T15:50:12;2.47;;;1.80;;
6821;SDS011;3449;48.728;8.968;2023-03-23T15:52:40;4.13;;;2.00;;